Tetraktys — OS6207 — position and weather

sailwx.info

Track history (hours):
 
Tides and Currents Weather Stations Pressure Air Temp Water Temp Dewpoint Dewpoint Depression Visibility Wind Speed Wind Dir Waves Ship Positions

Tetraktys

Last reported at 2017-Jun-23 17:57 UTC. Time now 2017-Jun-24 17:14 UTC.
Position N 49°47' E 000°13'.

Length 9 m.

Type: Sailing vessel. MMSI: 205620700.

Date/timePositionNaut miles runAvg speedWind from/ knotsBaromVisibWave heightAir tempDewpointWater temp
2017-Jun-23 17:57N 49°47' E 000°13'3 6.1
2017-Jun-23 17:30N 49°47' E 000°09'3 6.5
2017-Jun-23 17:00N 49°46' E 000°04'3 6.3
2017-Jun-23 16:30N 49°45' W 000°01'3 6.0
2017-Jun-23 16:00N 49°45' W 000°05'3 6.3
2017-Jun-23 15:29N 49°48' W 000°08'5 6.7
2017-Jun-23 14:49N 49°52' W 000°12'117 5.3
2017-Jun-22 16:55N 50°25' W 003°06'3 8.0
2017-Jun-22 16:30N 50°25' W 003°11'4 8.3
2017-Jun-22 16:00N 50°22' W 003°16'4 8.5
2017-Jun-22 15:30N 50°19' W 003°22'4 8.4
2017-Jun-22 15:00N 50°17' W 003°27'4 7.6
2017-Jun-22 14:30N 50°15' W 003°32'109 4.0
2017-Jun-21 10:57N 48°37' W 004°45'3 6.6
2017-Jun-21 10:30N 48°35' W 004°48'4 7.6
2017-Jun-21 10:00N 48°31' W 004°50'3 6.5
2017-Jun-21 09:30N 48°28' W 004°50'3 5.7
2017-Jun-21 08:53N 48°24' W 004°50'2 4.1
2017-Jun-21 08:20N 48°22' W 004°50'1 3.7
2017-Jun-21 07:59N 48°21' W 004°50'1 1.5
2017-Jun-21 07:00N 48°20' W 004°48'1 0.4
2017-Jun-21 05:18N 48°19' W 004°48'1 2.3
2017-Jun-21 04:58N 48°18' W 004°48'0 1.0
2017-Jun-21 04:30N 48°18' W 004°48'1 1.1
2017-Jun-21 03:52N 48°19' W 004°47'1 1.8
2017-Jun-21 03:30N 48°19' W 004°48'1 1.4
2017-Jun-21 03:00N 48°19' W 004°49'1 1.4
2017-Jun-21 02:30N 48°19' W 004°48'1 1.6
2017-Jun-21 01:59N 48°18' W 004°49'1 1.3
2017-Jun-21 01:23N 48°18' W 004°49'1 2.7
2017-Jun-21 01:00N 48°17' W 004°50'2 3.3
2017-Jun-21 00:29N 48°15' W 004°52'2 3.2
2017-Jun-20 23:58N 48°14' W 004°54'1 2.0
2017-Jun-20 23:28N 48°14' W 004°55'1 1.9
2017-Jun-20 22:59N 48°13' W 004°56'1 1.8
2017-Jun-20 22:26N 48°12' W 004°56'1 2.3
2017-Jun-20 21:55N 48°11' W 004°57'3 0.7
2017-Jun-20 18:01N 48°08' W 004°59'0 0.7
2017-Jun-20 17:30N 48°08' W 004°59'1 1.1
2017-Jun-20 16:48N 48°08' W 005°01'5 4.5
2017-Jun-20 15:38N 48°05' W 005°07'1 0.5
2017-Jun-20 12:58N 48°04' W 005°05'3 3.3
2017-Jun-20 12:11N 48°03' W 005°02'1 2.2
2017-Jun-20 11:53N 48°03' W 005°01'4 4.1
2017-Jun-20 10:53N 48°01' W 004°55'6 5.0
2017-Jun-20 09:43N 47°58' W 004°48'24 3.1
2017-Jun-20 01:48N 47°44' W 004°19'  
2017-Jun-16 08:04N 47°35' W 003°38'0 3.7
2017-Jun-16 08:00N 47°35' W 003°38'2 3.8
2017-Jun-16 07:30N 47°34' W 003°35'2 4.4
2017-Jun-16 07:00N 47°33' W 003°32'3 5.2
2017-Jun-16 06:30N 47°32' W 003°29'3 5.1
2017-Jun-16 06:00N 47°31' W 003°25'2 5.0
2017-Jun-16 05:30N 47°30' W 003°22'3 5.1
2017-Jun-16 05:00N 47°29' W 003°19'3 5.9
2017-Jun-16 04:30N 47°28' W 003°14'3 5.4
2017-Jun-16 04:00N 47°27' W 003°11'2 4.9
2017-Jun-16 03:30N 47°26' W 003°07'3 5.3
2017-Jun-16 03:00N 47°26' W 003°03'3 5.3
2017-Jun-16 02:30N 47°26' W 002°60'3 5.6
2017-Jun-16 01:59N 47°26' W 002°55'3 5.6
2017-Jun-16 01:30N 47°26' W 002°51'2 4.4
2017-Jun-16 01:00N 47°25' W 002°48'2 3.8
2017-Jun-16 00:30N 47°23' W 002°47'2 3.8
2017-Jun-15 23:57N 47°22' W 002°45'8 2.2
2017-Jun-15 20:06N 47°15' W 002°53'1 8.2
2017-Jun-15 19:57N 47°16' W 002°54'4 8.7
2017-Jun-15 19:27N 47°19' W 002°59'5 9.5
2017-Jun-15 18:57N 47°21' W 003°05'410.1
2017-Jun-15 18:30N 47°24' W 003°10'510.2
2017-Jun-15 18:00N 47°26' W 003°17'510.6
2017-Jun-15 17:30N 47°29' W 003°23'510.1
2017-Jun-15 17:00N 47°32' W 003°30'510.0
2017-Jun-15 16:30N 47°34' W 003°37'8 0.4
2017-Jun-14 18:28N 47°40' W 003°44'3 5.9
2017-Jun-14 17:56N 47°43' W 003°41'3 5.9
2017-Jun-14 17:29N 47°45' W 003°38'2 4.6
2017-Jun-14 17:00N 47°43' W 003°36'3 6.3
2017-Jun-14 16:28N 47°40' W 003°33'3 6.2
2017-Jun-14 15:57N 47°37' W 003°31'3 5.6
2017-Jun-14 15:30N 47°35' W 003°30'2 4.5
2017-Jun-14 15:00N 47°37' W 003°28'4 3.7
2017-Jun-14 14:00N 47°34' W 003°24'2 4.0
2017-Jun-14 13:30N 47°33' W 003°22'2 4.9
2017-Jun-14 13:00N 47°31' W 003°19'2 3.7
2017-Jun-14 12:30N 47°30' W 003°17'1 2.0
2017-Jun-14 12:00N 47°29' W 003°16'1 1.5
2017-Jun-14 11:30N 47°29' W 003°15'0 0.8
2017-Jun-14 10:57N 47°29' W 003°14'1 1.3
2017-Jun-14 10:28N 47°29' W 003°13'1 1.8
2017-Jun-14 10:00N 47°29' W 003°12'1 1.6
2017-Jun-14 09:30N 47°28' W 003°11'1 2.3
2017-Jun-14 09:00N 47°27' W 003°10'2 3.0
2017-Jun-14 08:29N 47°26' W 003°09'1 2.1
2017-Jun-14 08:00N 47°25' W 003°08'2 3.1
2017-Jun-14 07:30N 47°24' W 003°06'1 2.6
2017-Jun-14 06:58N 47°23' W 003°05'1 2.3
2017-Jun-14 06:21N 47°22' W 003°04'1 3.7
2017-Jun-14 06:00N 47°21' W 003°03'2 3.1
2017-Jun-14 05:30N 47°19' W 003°03'2 4.4
2017-Jun-14 04:59N 47°17' W 003°01'12 4.3
2017-Jun-14 02:09N 47°19' W 003°19'1 3.6
2017-Jun-14 01:59N 47°19' W 003°20'2 3.6
2017-Jun-14 01:30N 47°20' W 003°22'3 5.0
2017-Jun-14 00:59N 47°21' W 003°26'3 5.2
2017-Jun-14 00:30N 47°23' W 003°29'3 6.1
2017-Jun-13 23:58N 47°25' W 003°33'  
Track history (hours):
 
Tides and Currents Weather Stations Pressure Air Temp Water Temp Dewpoint Dewpoint Depression Visibility Wind Speed Wind Dir Waves Ship Positions

Tetraktys

Last reported at 2017-Jun-23 17:57 UTC. Time now 2017-Jun-24 17:14 UTC.
Position N 49°47' E 000°13'.

Length 9 m.

Type: Sailing vessel. MMSI: 205620700.

Date/timePositionNaut miles runAvg speedWind from/ knotsBaromVisibWave heightAir tempDewpointWater temp
2017-Jun-23 17:57N 49°47' E 000°13'3 6.1
2017-Jun-23 17:30N 49°47' E 000°09'3 6.5
2017-Jun-23 17:00N 49°46' E 000°04'3 6.3
2017-Jun-23 16:30N 49°45' W 000°01'3 6.0
2017-Jun-23 16:00N 49°45' W 000°05'3 6.3
2017-Jun-23 15:29N 49°48' W 000°08'5 6.7
2017-Jun-23 14:49N 49°52' W 000°12'117 5.3
2017-Jun-22 16:55N 50°25' W 003°06'3 8.0
2017-Jun-22 16:30N 50°25' W 003°11'4 8.3
2017-Jun-22 16:00N 50°22' W 003°16'4 8.5
2017-Jun-22 15:30N 50°19' W 003°22'4 8.4
2017-Jun-22 15:00N 50°17' W 003°27'4 7.6
2017-Jun-22 14:30N 50°15' W 003°32'109 4.0
2017-Jun-21 10:57N 48°37' W 004°45'3 6.6
2017-Jun-21 10:30N 48°35' W 004°48'4 7.6
2017-Jun-21 10:00N 48°31' W 004°50'3 6.5
2017-Jun-21 09:30N 48°28' W 004°50'3 5.7
2017-Jun-21 08:53N 48°24' W 004°50'2 4.1
2017-Jun-21 08:20N 48°22' W 004°50'1 3.7
2017-Jun-21 07:59N 48°21' W 004°50'1 1.5
2017-Jun-21 07:00N 48°20' W 004°48'1 0.4
2017-Jun-21 05:18N 48°19' W 004°48'1 2.3
2017-Jun-21 04:58N 48°18' W 004°48'0 1.0
2017-Jun-21 04:30N 48°18' W 004°48'1 1.1
2017-Jun-21 03:52N 48°19' W 004°47'1 1.8
2017-Jun-21 03:30N 48°19' W 004°48'1 1.4
2017-Jun-21 03:00N 48°19' W 004°49'1 1.4
2017-Jun-21 02:30N 48°19' W 004°48'1 1.6
2017-Jun-21 01:59N 48°18' W 004°49'1 1.3
2017-Jun-21 01:23N 48°18' W 004°49'1 2.7
2017-Jun-21 01:00N 48°17' W 004°50'2 3.3
2017-Jun-21 00:29N 48°15' W 004°52'2 3.2
2017-Jun-20 23:58N 48°14' W 004°54'1 2.0
2017-Jun-20 23:28N 48°14' W 004°55'1 1.9
2017-Jun-20 22:59N 48°13' W 004°56'1 1.8
2017-Jun-20 22:26N 48°12' W 004°56'1 2.3
2017-Jun-20 21:55N 48°11' W 004°57'3 0.7
2017-Jun-20 18:01N 48°08' W 004°59'0 0.7
2017-Jun-20 17:30N 48°08' W 004°59'1 1.1
2017-Jun-20 16:48N 48°08' W 005°01'5 4.5
2017-Jun-20 15:38N 48°05' W 005°07'1 0.5
2017-Jun-20 12:58N 48°04' W 005°05'3 3.3
2017-Jun-20 12:11N 48°03' W 005°02'1 2.2
2017-Jun-20 11:53N 48°03' W 005°01'4 4.1
2017-Jun-20 10:53N 48°01' W 004°55'6 5.0
2017-Jun-20 09:43N 47°58' W 004°48'24 3.1
2017-Jun-20 01:48N 47°44' W 004°19'  
2017-Jun-16 08:04N 47°35' W 003°38'0 3.7
2017-Jun-16 08:00N 47°35' W 003°38'2 3.8
2017-Jun-16 07:30N 47°34' W 003°35'2 4.4
2017-Jun-16 07:00N 47°33' W 003°32'3 5.2
2017-Jun-16 06:30N 47°32' W 003°29'3 5.1
2017-Jun-16 06:00N 47°31' W 003°25'2 5.0
2017-Jun-16 05:30N 47°30' W 003°22'3 5.1
2017-Jun-16 05:00N 47°29' W 003°19'3 5.9
2017-Jun-16 04:30N 47°28' W 003°14'3 5.4
2017-Jun-16 04:00N 47°27' W 003°11'2 4.9
2017-Jun-16 03:30N 47°26' W 003°07'3 5.3
2017-Jun-16 03:00N 47°26' W 003°03'3 5.3
2017-Jun-16 02:30N 47°26' W 002°60'3 5.6
2017-Jun-16 01:59N 47°26' W 002°55'3 5.6
2017-Jun-16 01:30N 47°26' W 002°51'2 4.4
2017-Jun-16 01:00N 47°25' W 002°48'2 3.8
2017-Jun-16 00:30N 47°23' W 002°47'2 3.8
2017-Jun-15 23:57N 47°22' W 002°45'8 2.2
2017-Jun-15 20:06N 47°15' W 002°53'1 8.2
2017-Jun-15 19:57N 47°16' W 002°54'4 8.7
2017-Jun-15 19:27N 47°19' W 002°59'5 9.5
2017-Jun-15 18:57N 47°21' W 003°05'410.1
2017-Jun-15 18:30N 47°24' W 003°10'510.2
2017-Jun-15 18:00N 47°26' W 003°17'510.6
2017-Jun-15 17:30N 47°29' W 003°23'510.1
2017-Jun-15 17:00N 47°32' W 003°30'510.0
2017-Jun-15 16:30N 47°34' W 003°37'8 0.4
2017-Jun-14 18:28N 47°40' W 003°44'3 5.9
2017-Jun-14 17:56N 47°43' W 003°41'3 5.9
2017-Jun-14 17:29N 47°45' W 003°38'2 4.6
2017-Jun-14 17:00N 47°43' W 003°36'3 6.3
2017-Jun-14 16:28N 47°40' W 003°33'3 6.2
2017-Jun-14 15:57N 47°37' W 003°31'3 5.6
2017-Jun-14 15:30N 47°35' W 003°30'2 4.5
2017-Jun-14 15:00N 47°37' W 003°28'4 3.7
2017-Jun-14 14:00N 47°34' W 003°24'2 4.0
2017-Jun-14 13:30N 47°33' W 003°22'2 4.9
2017-Jun-14 13:00N 47°31' W 003°19'2 3.7
2017-Jun-14 12:30N 47°30' W 003°17'1 2.0
2017-Jun-14 12:00N 47°29' W 003°16'1 1.5
2017-Jun-14 11:30N 47°29' W 003°15'0 0.8
2017-Jun-14 10:57N 47°29' W 003°14'1 1.3
2017-Jun-14 10:28N 47°29' W 003°13'1 1.8
2017-Jun-14 10:00N 47°29' W 003°12'1 1.6
2017-Jun-14 09:30N 47°28' W 003°11'1 2.3
2017-Jun-14 09:00N 47°27' W 003°10'2 3.0
2017-Jun-14 08:29N 47°26' W 003°09'1 2.1
2017-Jun-14 08:00N 47°25' W 003°08'2 3.1
2017-Jun-14 07:30N 47°24' W 003°06'1 2.6
2017-Jun-14 06:58N 47°23' W 003°05'1 2.3
2017-Jun-14 06:21N 47°22' W 003°04'1 3.7
2017-Jun-14 06:00N 47°21' W 003°03'2 3.1
2017-Jun-14 05:30N 47°19' W 003°03'2 4.4
2017-Jun-14 04:59N 47°17' W 003°01'12 4.3
2017-Jun-14 02:09N 47°19' W 003°19'1 3.6
2017-Jun-14 01:59N 47°19' W 003°20'2 3.6
2017-Jun-14 01:30N 47°20' W 003°22'3 5.0
2017-Jun-14 00:59N 47°21' W 003°26'3 5.2
2017-Jun-14 00:30N 47°23' W 003°29'3 6.1
2017-Jun-13 23:58N 47°25' W 003°33'  

Dump ship's entire track history